createdAt,value
2022-09-20T00:01:32.433Z,10.23
2022-09-20T00:04:04.886Z,10.40
2022-09-20T00:06:32.852Z,14.03
2022-09-20T00:09:01.276Z,13.93
2022-09-20T00:11:32.105Z,11.90
2022-09-20T00:14:01.683Z,15.77
2022-09-20T00:16:32.841Z,12.17
2022-09-20T00:19:03.971Z,20.07
2022-09-20T00:21:34.022Z,18.33
2022-09-20T00:24:01.698Z,19.23
2022-09-20T00:26:29.396Z,15.97
2022-09-20T00:28:58.861Z,12.97
2022-09-20T00:31:26.652Z,17.33
2022-09-20T00:34:16.995Z,15.33
2022-09-20T00:36:45.160Z,15.63
2022-09-20T00:39:15.323Z,16.13
2022-09-20T00:41:43.347Z,17.00
2022-09-20T00:44:53.425Z,14.53
2022-09-20T00:47:46.510Z,15.50
2022-09-20T00:50:35.307Z,15.43
2022-09-20T00:53:10.793Z,14.67
2022-09-20T00:55:45.636Z,13.50
2022-09-20T00:58:14.637Z,16.20
2022-09-20T01:00:44.360Z,23.53
2022-09-20T01:03:14.821Z,16.53
2022-09-20T01:05:44.260Z,16.40
2022-09-20T01:08:12.273Z,20.03
2022-09-20T01:10:39.567Z,19.47
2022-09-20T01:13:06.510Z,22.33
2022-09-20T01:15:38.469Z,25.63
2022-09-20T01:18:09.184Z,23.33
2022-09-20T01:20:41.946Z,32.50
2022-09-20T01:23:34.991Z,28.87
2022-09-20T01:26:38.035Z,26.00
2022-09-20T01:29:55.549Z,27.90
2022-09-20T01:32:30.774Z,26.13
2022-09-20T01:35:01.295Z,26.07
2022-09-20T01:37:47.351Z,23.00
2022-09-20T01:40:43.597Z,21.33
2022-09-20T01:43:32.164Z,22.13
2022-09-20T01:46:12.239Z,25.20
2022-09-20T01:48:42.274Z,18.97
2022-09-20T01:52:07.239Z,27.17
2022-09-20T01:55:12.278Z,29.23
2022-09-20T01:57:56.893Z,27.50
2022-09-20T02:00:34.966Z,25.13
2022-09-20T02:03:32.399Z,31.40
2022-09-20T02:06:11.147Z,32.37
2022-09-20T02:09:31.640Z,25.83
2022-09-20T02:12:33.742Z,26.93
2022-09-20T02:15:41.214Z,25.30
2022-09-20T02:18:32.431Z,30.23
2022-09-20T02:21:37.636Z,19.50
2022-09-20T02:24:45.401Z,31.93
2022-09-20T02:27:54.100Z,25.83
2022-09-20T02:30:53.109Z,23.87
2022-09-20T02:33:42.975Z,18.77
2022-09-20T02:36:49.544Z,25.77
2022-09-20T02:39:23.020Z,25.00
2022-09-20T02:42:07.287Z,32.83
2022-09-20T02:45:04.167Z,29.33
2022-09-20T02:47:41.979Z,25.03
2022-09-20T02:50:46.888Z,23.17
2022-09-20T02:54:10.166Z,23.80
2022-09-20T02:56:54.495Z,20.20
2022-09-20T02:59:46.502Z,22.07
2022-09-20T03:03:00.250Z,26.83
2022-09-20T03:05:44.868Z,25.23
2022-09-20T03:08:52.462Z,26.23
2022-09-20T03:11:44.141Z,17.67
2022-09-20T03:14:38.272Z,20.63
2022-09-20T03:17:26.597Z,19.00
2022-09-20T03:20:36.020Z,21.00
2022-09-20T03:24:03.175Z,21.90
2022-09-20T03:27:07.611Z,21.70
2022-09-20T03:30:36.778Z,23.40
2022-09-20T03:33:40.738Z,18.67
2022-09-20T03:36:40.622Z,21.67
2022-09-20T03:39:36.354Z,19.00
2022-09-20T03:42:25.360Z,20.13
2022-09-20T03:45:19.605Z,22.77
2022-09-20T03:48:22.465Z,18.90
2022-09-20T03:51:19.797Z,21.47
2022-09-20T03:54:34.832Z,15.93
2022-09-20T03:57:48.259Z,19.97
2022-09-20T04:00:52.861Z,21.13
2022-09-20T04:03:38.663Z,17.27
2022-09-20T04:06:34.643Z,17.07
2022-09-20T04:09:47.663Z,15.80
2022-09-20T04:12:35.497Z,20.97
2022-09-20T04:15:41.233Z,16.93
2022-09-20T04:18:43.317Z,12.30
2022-09-20T04:21:28.581Z,17.93
2022-09-20T04:24:03.428Z,16.43
2022-09-20T04:26:36.645Z,15.50
2022-09-20T04:29:34.123Z,18.00
2022-09-20T04:32:28.775Z,15.73
2022-09-20T04:35:40.774Z,13.37
2022-09-20T04:38:16.746Z,14.07
2022-09-20T04:41:21.670Z,22.70
2022-09-20T04:44:22.371Z,16.03
2022-09-20T04:47:50.147Z,13.17
2022-09-20T04:51:12.071Z,18.37
2022-09-20T04:54:26.532Z,20.13
2022-09-20T04:57:34.317Z,10.03
2022-09-20T05:00:21.459Z,12.70
2022-09-20T05:03:44.815Z,15.33
2022-09-20T05:06:38.282Z,19.43
2022-09-20T05:09:56.945Z,25.67
2022-09-20T05:12:47.598Z,18.40
2022-09-20T05:15:36.273Z,16.80
2022-09-20T05:18:33.132Z,16.33
2022-09-20T05:21:10.619Z,21.67
2022-09-20T05:24:18.140Z,21.97
2022-09-20T05:27:29.967Z,17.53
2022-09-20T05:30:40.745Z,19.53
2022-09-20T05:33:23.800Z,18.93
2022-09-20T05:36:47.577Z,21.33
2022-09-20T05:39:33.440Z,21.90
2022-09-20T05:42:47.189Z,19.47
2022-09-20T05:45:47.284Z,18.70
2022-09-20T05:48:34.781Z,18.50
2022-09-20T05:51:45.780Z,26.57
2022-09-20T05:54:29.810Z,23.87
2022-09-20T05:57:34.100Z,21.07
2022-09-20T06:00:21.543Z,22.57
2022-09-20T06:03:32.123Z,24.10
2022-09-20T06:06:30.331Z,21.33
2022-09-20T06:09:43.081Z,25.00
2022-09-20T06:12:31.614Z,18.03
2022-09-20T06:15:19.747Z,15.10
2022-09-20T06:18:28.788Z,18.20
2022-09-20T06:21:24.678Z,16.37
2022-09-20T06:23:59.503Z,14.63
2022-09-20T06:26:33.886Z,13.17
2022-09-20T06:29:07.232Z,12.17
2022-09-20T06:31:34.257Z,18.07
2022-09-20T06:34:08.793Z,16.97
2022-09-20T06:37:00.017Z,15.48
2022-09-20T06:40:17.507Z,12.38
2022-09-20T06:42:44.707Z,17.02
2022-09-20T06:45:11.701Z,15.55
2022-09-20T06:47:40.413Z,14.02
2022-09-20T06:50:15.025Z,11.73
2022-09-20T06:52:44.903Z,12.95
2022-09-20T06:55:30.244Z,13.15
2022-09-20T06:57:57.545Z,10.65
2022-09-20T07:00:24.547Z,8.90
2022-09-20T07:02:51.419Z,14.60
2022-09-20T07:05:21.917Z,14.20
2022-09-20T07:07:48.820Z,10.68
2022-09-20T07:10:16.057Z,9.05
2022-09-20T07:12:42.864Z,8.02
2022-09-20T07:15:10.418Z,10.95
2022-09-20T07:17:37.325Z,8.70
2022-09-20T07:20:04.584Z,7.55
2022-09-20T07:22:31.460Z,10.95
2022-09-20T07:25:02.413Z,7.80
2022-09-20T07:27:30.397Z,8.32
2022-09-20T07:29:57.315Z,9.02
2022-09-20T07:32:24.185Z,9.18
2022-09-20T07:34:51.018Z,8.02
2022-09-20T07:37:19.310Z,10.63
2022-09-20T07:39:46.283Z,8.40
2022-09-20T07:42:14.065Z,8.70
2022-09-20T07:44:43.550Z,6.55
2022-09-20T07:47:11.246Z,9.68
2022-09-20T07:49:38.094Z,9.00
2022-09-20T07:52:05.083Z,11.05
2022-09-20T07:54:31.905Z,11.10
2022-09-20T07:56:59.017Z,17.48
2022-09-20T07:59:26.015Z,12.65
2022-09-20T08:01:52.867Z,12.13
2022-09-20T08:04:19.712Z,14.27
2022-09-20T08:06:46.751Z,14.02
2022-09-20T08:09:15.070Z,11.38
2022-09-20T08:11:43.498Z,13.80
2022-09-20T08:14:15.601Z,11.07
2022-09-20T08:16:47.323Z,14.93
2022-09-20T08:19:22.983Z,12.63
2022-09-20T08:21:53.318Z,15.30
2022-09-20T08:24:20.584Z,13.73
2022-09-20T08:26:48.462Z,18.50
2022-09-20T08:29:15.449Z,13.55
2022-09-20T08:31:42.870Z,10.70
2022-09-20T08:34:12.915Z,10.80
2022-09-20T08:36:46.863Z,10.82
2022-09-20T08:42:33.648Z,13.82
2022-09-20T08:45:06.828Z,10.43
2022-09-20T08:47:43.900Z,9.77
2022-09-20T08:50:19.112Z,7.18
2022-09-20T08:52:53.901Z,8.88
2022-09-20T08:55:27.951Z,9.38
2022-09-20T08:57:58.100Z,7.47
2022-09-20T09:00:33.673Z,6.13
2022-09-20T09:03:10.628Z,7.47
2022-09-20T09:05:46.645Z,9.05
2022-09-20T09:08:22.102Z,4.82
2022-09-20T09:10:56.864Z,3.90
2022-09-20T09:14:07.023Z,5.13
2022-09-20T09:16:36.446Z,5.13
2022-09-20T09:19:26.654Z,6.03
2022-09-20T09:22:03.203Z,4.10
2022-09-20T09:24:33.526Z,5.07
2022-09-20T09:27:19.710Z,5.30
2022-09-20T09:29:54.014Z,3.38
2022-09-20T09:32:29.101Z,4.03
2022-09-20T09:35:03.758Z,7.35
2022-09-20T09:37:32.571Z,2.55
2022-09-20T09:40:10.134Z,6.30
2022-09-20T09:42:37.082Z,3.60
2022-09-20T09:45:31.822Z,3.85
2022-09-20T09:48:01.554Z,4.90
2022-09-20T09:50:33.916Z,4.65
2022-09-20T09:53:09.424Z,3.25
2022-09-20T09:55:45.279Z,3.03
2022-09-20T09:58:27.237Z,2.30
2022-09-20T10:00:57.271Z,2.78
2022-09-20T10:03:53.651Z,3.75
2022-09-20T10:06:33.990Z,7.45
2022-09-20T10:09:36.211Z,2.17
2022-09-20T10:12:30.329Z,3.72
2022-09-20T10:15:19.865Z,2.33
2022-09-20T10:18:56.032Z,4.70
2022-09-20T10:21:52.543Z,2.30
2022-09-20T10:24:30.941Z,2.80
2022-09-20T10:27:38.978Z,2.22
2022-09-20T10:30:24.658Z,2.67
2022-09-20T10:32:57.425Z,3.22
2022-09-20T10:36:18.141Z,1.92
2022-09-20T10:39:20.067Z,4.45
2022-09-20T10:42:52.903Z,2.55
2022-09-20T10:46:03.887Z,2.20
2022-09-20T10:48:48.391Z,1.75
2022-09-20T10:51:54.990Z,1.88
2022-09-20T10:54:56.225Z,1.25
2022-09-20T10:58:03.824Z,2.22
2022-09-20T11:00:57.101Z,3.05
2022-09-20T11:03:57.459Z,1.58
2022-09-20T11:06:48.537Z,1.05
2022-09-20T11:09:29.532Z,2.25
2022-09-20T11:12:18.420Z,1.77
2022-09-20T11:14:54.262Z,2.03
2022-09-20T11:17:31.894Z,2.58
2022-09-20T11:20:18.590Z,0.85
2022-09-20T11:23:19.356Z,3.00
2022-09-20T11:25:58.819Z,1.48
2022-09-20T11:28:50.898Z,1.90
2022-09-20T11:31:32.763Z,3.08
2022-09-20T11:34:35.845Z,1.85
2022-09-20T11:37:03.526Z,1.00
2022-09-20T11:39:53.898Z,1.20
2022-09-20T11:42:27.225Z,2.20
2022-09-20T11:44:55.649Z,0.75
2022-09-20T11:47:55.036Z,2.53
2022-09-20T11:50:33.275Z,3.10
2022-09-20T11:53:21.733Z,1.92
2022-09-20T11:56:10.748Z,2.20
2022-09-20T11:58:50.394Z,2.05
2022-09-20T12:01:33.099Z,1.42
2022-09-20T12:04:31.311Z,1.25
2022-09-20T12:07:17.807Z,3.28
2022-09-20T12:10:04.237Z,2.60
2022-09-20T12:12:54.834Z,1.08
2022-09-20T12:15:21.527Z,2.63
2022-09-20T12:17:48.245Z,2.70
2022-09-20T12:20:34.273Z,0.43
2022-09-20T12:23:44.264Z,0.80
2022-09-20T12:26:21.562Z,2.05
2022-09-20T12:28:55.225Z,2.28
2022-09-20T12:31:22.102Z,2.63
2022-09-20T12:34:11.728Z,2.75
2022-09-20T12:36:53.779Z,1.48
2022-09-20T12:39:30.369Z,0.63
2022-09-20T12:42:12.503Z,0.80
2022-09-20T12:45:02.988Z,1.75
2022-09-20T12:47:34.792Z,1.65
2022-09-20T12:50:35.476Z,1.05
2022-09-20T12:53:12.519Z,1.58
2022-09-20T12:56:07.915Z,1.60
2022-09-20T12:58:53.710Z,2.97
2022-09-20T13:01:23.774Z,1.90
2022-09-20T13:03:51.062Z,1.20
2022-09-20T13:06:19.119Z,4.00
2022-09-20T13:08:57.153Z,2.38
2022-09-20T13:11:53.327Z,1.02
2022-09-20T13:14:31.058Z,1.02
2022-09-20T13:17:14.000Z,1.13
2022-09-20T13:19:47.054Z,2.40
2022-09-20T13:22:37.733Z,0.63
2022-09-20T13:25:13.152Z,2.30
2022-09-20T13:28:22.611Z,1.17
2022-09-20T13:30:49.426Z,0.88
2022-09-20T13:33:24.244Z,1.48
2022-09-20T13:35:56.921Z,1.27
2022-09-20T13:38:30.016Z,0.75
2022-09-20T13:41:12.939Z,1.45
2022-09-20T13:43:50.015Z,2.55
2022-09-20T13:46:29.731Z,1.50
2022-09-20T13:49:23.785Z,1.33
2022-09-20T13:51:52.030Z,0.82
2022-09-20T13:54:33.157Z,0.80
2022-09-20T13:57:12.858Z,2.28
2022-09-20T13:59:46.492Z,1.58
2022-09-20T14:02:30.885Z,0.88
2022-09-20T14:05:02.420Z,1.58
2022-09-20T14:07:30.981Z,2.85
2022-09-20T14:09:58.891Z,1.75
2022-09-20T14:12:28.000Z,3.50
2022-09-20T14:14:55.669Z,2.17
2022-09-20T14:17:24.821Z,1.98
2022-09-20T14:19:55.100Z,1.83
2022-09-20T14:22:28.903Z,0.77
2022-09-20T14:25:14.163Z,1.20
2022-09-20T14:27:41.040Z,3.05
2022-09-20T14:30:29.398Z,1.67
2022-09-20T14:32:58.476Z,3.53
2022-09-20T14:35:26.806Z,3.88
2022-09-20T14:38:00.593Z,1.92
2022-09-20T14:40:31.956Z,3.95
2022-09-20T14:43:05.566Z,3.53
2022-09-20T14:45:36.414Z,4.05
2022-09-20T14:48:30.737Z,1.27
2022-09-20T14:51:16.192Z,1.80
2022-09-20T14:53:45.609Z,3.40
2022-09-20T14:56:15.664Z,1.35
2022-09-20T14:59:13.793Z,1.38
2022-09-20T15:02:03.346Z,3.45
2022-09-20T15:04:32.691Z,3.30
2022-09-20T15:07:07.126Z,1.88
2022-09-20T15:09:35.233Z,1.35
2022-09-20T15:12:07.359Z,2.10
2022-09-20T15:14:37.865Z,1.80
2022-09-20T15:17:05.968Z,1.10
2022-09-20T15:19:32.788Z,2.40
2022-09-20T15:21:59.825Z,3.83
2022-09-20T15:24:26.918Z,2.60
2022-09-20T15:26:54.022Z,2.78
2022-09-20T15:29:20.857Z,3.88
2022-09-20T15:31:48.792Z,2.00
2022-09-20T15:34:16.276Z,3.05
2022-09-20T15:36:43.327Z,1.52
2022-09-20T15:39:10.789Z,2.00
2022-09-20T15:41:38.351Z,4.15
2022-09-20T15:44:06.516Z,2.28
2022-09-20T15:46:34.209Z,1.13
2022-09-20T15:49:03.184Z,1.30
2022-09-20T15:51:33.218Z,2.47
2022-09-20T15:54:03.977Z,2.92
2022-09-20T15:56:37.254Z,3.88
2022-09-20T15:59:07.747Z,3.22
2022-09-20T16:01:43.480Z,3.85
2022-09-20T16:04:14.241Z,2.55
2022-09-20T16:06:43.419Z,3.30
2022-09-20T16:09:10.591Z,4.25
2022-09-20T16:11:38.725Z,2.45
2022-09-20T16:14:06.505Z,1.88
2022-09-20T16:16:40.095Z,3.05
2022-09-20T16:19:24.855Z,6.13
2022-09-20T16:21:58.327Z,3.47
2022-09-20T16:24:33.032Z,4.35
2022-09-20T16:27:02.519Z,4.32
2022-09-20T16:29:30.756Z,3.80
2022-09-20T16:31:59.565Z,3.33
2022-09-20T16:34:32.458Z,5.55
2022-09-20T16:37:11.952Z,2.53
2022-09-20T16:39:40.302Z,3.63
2022-09-20T16:42:08.975Z,2.70
2022-09-20T16:44:38.964Z,4.65
2022-09-20T16:47:08.822Z,3.28
2022-09-20T16:49:37.024Z,5.47
2022-09-20T16:52:08.986Z,4.30
2022-09-20T16:54:36.035Z,4.03
2022-09-20T16:57:03.363Z,4.43
2022-09-20T16:59:30.123Z,2.88
2022-09-20T17:01:57.394Z,4.03
2022-09-20T17:04:24.411Z,5.85
2022-09-20T17:06:52.087Z,2.42
2022-09-20T17:09:19.186Z,5.85
2022-09-20T17:11:50.290Z,4.15
2022-09-20T17:14:20.255Z,1.50
2022-09-20T17:16:49.061Z,5.88
2022-09-20T17:19:19.218Z,3.58
2022-09-20T17:21:50.009Z,2.33
2022-09-20T17:24:22.387Z,6.60
2022-09-20T17:26:50.644Z,2.45
2022-09-20T17:29:19.646Z,2.10
2022-09-20T17:31:55.153Z,2.95
2022-09-20T17:34:24.592Z,4.30
2022-09-20T17:36:51.678Z,4.15
2022-09-20T17:39:18.698Z,3.53
2022-09-20T17:41:48.158Z,5.20
2022-09-20T17:44:16.482Z,3.25
2022-09-20T17:46:47.020Z,5.88
2022-09-20T17:49:19.719Z,5.97
2022-09-20T17:51:53.054Z,4.82
2022-09-20T17:54:21.343Z,1.88
2022-09-20T17:56:51.349Z,4.43
2022-09-20T17:59:20.364Z,4.57
2022-09-20T18:01:50.408Z,3.78
2022-09-20T18:04:17.639Z,4.57
2022-09-20T18:06:50.847Z,4.18
2022-09-20T18:09:24.817Z,4.83
2022-09-20T18:11:54.056Z,4.93
2022-09-20T18:14:24.506Z,4.50
2022-09-20T18:17:00.742Z,3.28
2022-09-20T18:19:32.828Z,4.28
2022-09-20T18:22:01.418Z,3.53
2022-09-20T18:24:28.244Z,6.40
2022-09-20T18:26:55.220Z,5.90
2022-09-20T18:29:22.056Z,5.60
2022-09-20T18:31:57.786Z,7.40
2022-09-20T18:34:31.235Z,6.15
2022-09-20T18:37:00.226Z,4.47
2022-09-20T18:39:32.414Z,6.75
2022-09-20T18:41:59.964Z,3.70
2022-09-20T18:44:28.149Z,4.88
2022-09-20T18:46:55.174Z,4.50
2022-09-20T18:49:22.493Z,4.53
2022-09-20T18:51:50.102Z,3.50
2022-09-20T18:54:18.807Z,4.45
2022-09-20T18:56:48.962Z,4.72
2022-09-20T18:59:23.399Z,5.78
2022-09-20T19:01:50.355Z,6.78
2022-09-20T19:04:32.643Z,7.80
2022-09-20T19:07:12.906Z,8.35
2022-09-20T19:10:06.155Z,13.10
2022-09-20T19:13:20.957Z,6.95
2022-09-20T19:16:17.289Z,4.07
2022-09-20T19:19:08.886Z,6.35
2022-09-20T19:22:18.759Z,19.15
2022-09-20T19:25:19.542Z,26.77
2022-09-20T19:27:47.227Z,27.98
2022-09-20T19:30:15.972Z,20.30
2022-09-20T19:32:44.364Z,26.48
2022-09-20T19:35:29.547Z,21.93
2022-09-20T19:38:24.556Z,15.85
2022-09-20T19:41:18.915Z,12.10
2022-09-20T19:44:30.530Z,10.30
2022-09-20T19:47:34.328Z,5.55
2022-09-20T19:50:47.041Z,6.57
2022-09-20T19:53:17.499Z,6.72
2022-09-20T19:55:52.047Z,4.68
2022-09-20T19:58:19.307Z,4.35
2022-09-20T20:00:47.496Z,4.85
2022-09-20T20:03:16.595Z,5.28
2022-09-20T20:05:56.436Z,5.13
2022-09-20T20:08:40.884Z,4.85
2022-09-20T20:11:47.114Z,6.35
2022-09-20T20:14:44.046Z,6.88
2022-09-20T20:17:43.807Z,4.93
2022-09-20T20:20:28.917Z,7.05
2022-09-20T20:23:45.458Z,5.72
2022-09-20T20:26:23.606Z,5.88
2022-09-20T20:28:54.457Z,5.78
2022-09-20T20:31:22.885Z,7.00
2022-09-20T20:33:50.090Z,4.20
2022-09-20T20:36:17.507Z,4.38
2022-09-20T20:38:49.538Z,4.97
2022-09-20T20:41:21.170Z,6.88
2022-09-20T20:43:51.770Z,4.53
2022-09-20T20:46:18.775Z,8.65
2022-09-20T20:48:47.765Z,6.55
2022-09-20T20:51:21.417Z,8.55
2022-09-20T20:53:53.783Z,7.15
2022-09-20T20:56:25.759Z,6.35
2022-09-20T20:58:53.545Z,4.55
2022-09-20T21:01:28.048Z,6.03
2022-09-20T21:03:57.430Z,3.67
2022-09-20T21:06:34.825Z,7.95
2022-09-20T21:09:03.052Z,7.15
2022-09-20T21:11:33.523Z,9.77
2022-09-20T21:14:04.830Z,9.65
2022-09-20T21:16:38.882Z,7.85
2022-09-20T21:19:06.859Z,11.20
2022-09-20T21:21:39.374Z,9.43
2022-09-20T21:24:09.707Z,9.75
2022-09-20T21:26:38.382Z,9.45
2022-09-20T21:29:09.935Z,9.03
2022-09-20T21:31:40.830Z,7.68
2022-09-20T21:34:11.043Z,14.57
2022-09-20T21:36:41.347Z,10.93
2022-09-20T21:39:08.860Z,15.73
2022-09-20T21:41:38.329Z,15.20
2022-09-20T21:44:07.376Z,15.40
2022-09-20T21:46:40.268Z,18.97
2022-09-20T21:49:10.905Z,16.80
2022-09-20T21:51:41.355Z,13.33
2022-09-20T21:54:08.634Z,7.10
2022-09-20T21:56:37.939Z,5.97
2022-09-20T21:59:06.120Z,5.17
2022-09-20T22:01:36.883Z,6.63
2022-09-20T22:04:09.891Z,4.87
2022-09-20T22:06:40.863Z,5.53
2022-09-20T22:09:11.027Z,8.90
2022-09-20T22:11:41.931Z,5.50
2022-09-20T22:14:11.517Z,5.30
2022-09-20T22:16:41.881Z,5.87
2022-09-20T22:19:12.102Z,5.97
2022-09-20T22:21:42.488Z,6.87
2022-09-20T22:24:11.899Z,6.63
2022-09-20T22:26:42.725Z,11.60
2022-09-20T22:29:10.320Z,4.70
2022-09-20T22:31:47.185Z,5.87
2022-09-20T22:34:17.881Z,3.13
2022-09-20T22:36:45.738Z,4.50
2022-09-20T22:39:14.031Z,7.17
2022-09-20T22:41:42.696Z,7.53
2022-09-20T22:44:10.883Z,10.50
2022-09-20T22:46:39.132Z,11.90
2022-09-20T22:49:08.067Z,13.47
2022-09-20T22:51:35.159Z,13.20
2022-09-20T22:54:08.177Z,10.63
2022-09-20T22:56:36.206Z,9.07
2022-09-20T22:59:10.221Z,9.97
2022-09-20T23:01:43.331Z,10.80
2022-09-20T23:04:14.315Z,10.83
2022-09-20T23:06:46.844Z,10.47
2022-09-20T23:09:16.681Z,10.53
2022-09-20T23:11:44.645Z,7.90
2022-09-20T23:14:15.292Z,8.93
2022-09-20T23:16:43.040Z,8.53
2022-09-20T23:19:11.476Z,6.90
2022-09-20T23:21:40.313Z,8.93
2022-09-20T23:24:10.465Z,13.17
2022-09-20T23:26:39.959Z,9.00
2022-09-20T23:29:13.022Z,8.60
2022-09-20T23:31:45.755Z,8.87
2022-09-20T23:34:14.254Z,7.67
2022-09-20T23:36:41.759Z,9.00
2022-09-20T23:39:10.126Z,9.07
2022-09-20T23:41:37.541Z,14.40
2022-09-20T23:44:06.494Z,12.53
2022-09-20T23:46:33.912Z,14.70
2022-09-20T23:49:00.686Z,10.50
2022-09-20T23:51:28.958Z,10.57
2022-09-20T23:53:56.096Z,9.03
2022-09-20T23:56:23.775Z,11.07
2022-09-20T23:58:51.315Z,8.73
